Time;durP1;ratioP1;P1;durP2;ratioP2;P2;SDS_P1;SDS_P2;PMS_P1;PMS_P2;Temp;Humidity;BMP_temperature;BMP_pressure;BME280_temperature;BME280_humidity;BME280_pressure;Samples;Min_cycle;Max_cycle;Signal;HPM_P1;HPM_P2
2023/03/26 00:00:39;;;;;;;;;;;7.60;99.90;;;;;;5074189;28;19924;-69
2023/03/26 00:03:05;;;;;;;;;;;7.60;99.90;;;;;;5092391;28;19932;-69
2023/03/26 00:05:31;;;;;;;;;;;7.60;99.90;;;;;;5092284;28;19970;-69
2023/03/26 00:07:57;;;;;;;;;;;7.60;99.90;;;;;;5090269;28;20301;-70
2023/03/26 00:10:24;;;;;;;;;;;7.60;99.90;;;;;;5092099;28;19930;-69
2023/03/26 00:12:50;;;;;;;;;;;7.50;99.90;;;;;;5092074;28;19951;-70
2023/03/26 00:15:15;;;;;;;;;;;7.60;99.90;;;;;;5092428;28;19924;-69
2023/03/26 00:17:41;;;;;;;;;;;7.50;99.90;;;;;;5091633;28;20280;-69
2023/03/26 00:20:07;;;;;;;;;;;7.50;99.90;;;;;;5091075;28;20297;-69
2023/03/26 00:22:33;;;;;;;;;;;7.50;99.90;;;;;;5091376;28;20341;-69
2023/03/26 00:25:00;;;;;;;;;;;7.50;99.90;;;;;;5092009;28;19924;-69
2023/03/26 00:27:26;;;;;;;;;;;7.40;99.90;;;;;;5091194;28;19924;-70
2023/03/26 00:29:55;;;;;;;;;;;7.40;99.90;;;;;;5091651;28;20318;-69
2023/03/26 00:32:20;;;;;;;;;;;7.30;99.90;;;;;;5092306;28;20007;-69
2023/03/26 00:34:46;;;;;;;;;;;7.30;99.90;;;;;;5092016;28;19990;-69
2023/03/26 00:37:13;;;;;;;;;;;7.30;99.90;;;;;;5091937;28;19924;-69
2023/03/26 00:39:38;;;;;;;;;;;7.20;99.90;;;;;;5090860;28;19931;-69
2023/03/26 00:42:05;;;;;;;;;;;7.20;99.90;;;;;;5090779;28;19928;-69
2023/03/26 00:44:32;;;;;;;;;;;7.10;99.90;;;;;;5092295;28;19935;-70
2023/03/26 00:46:58;;;;;;;;;;;7.10;99.90;;;;;;5091556;28;20408;-69
2023/03/26 00:49:25;;;;;;;;;;;7.10;99.90;;;;;;5091871;28;19924;-68
2023/03/26 00:51:51;;;;;;;;;;;7.10;99.90;;;;;;5090719;28;19931;-69
2023/03/26 00:54:17;;;;;;;;;;;7.10;99.90;;;;;;5090607;28;20381;-68
2023/03/26 00:56:43;;;;;;;;;;;7.10;99.90;;;;;;5091716;28;20014;-69
2023/03/26 00:59:09;;;;;;;;;;;7.10;99.90;;;;;;5091944;28;20048;-69
2023/03/26 01:01:35;;;;;;;;;;;7.10;99.90;;;;;;5090548;28;19985;-70
2023/03/26 01:04:19;;;;;;;;;;;7.10;99.90;;;;;;5091007;28;19972;-69
2023/03/26 01:06:45;;;;;;;;;;;7.20;99.90;;;;;;5100760;28;20014;-69
2023/03/26 01:09:22;;;;;;;;;;;7.10;99.90;;;;;;5094024;28;20018;-70
2023/03/26 01:11:48;;;;;;;;;;;7.10;99.90;;;;;;5093912;28;20391;-69
2023/03/26 01:14:15;;;;;;;;;;;7.10;99.90;;;;;;5112355;28;20018;-69
2023/03/26 01:16:52;;;;;;;;;;;7.10;99.90;;;;;;5094093;28;19924;-69
2023/03/26 01:19:22;;;;;;;;;;;7.10;99.90;;;;;;5112045;28;19924;-70
2023/03/26 01:21:48;;;;;;;;;;;7.10;99.90;;;;;;5111275;28;20019;-69
2023/03/26 01:24:13;;;;;;;;;;;7.10;99.90;;;;;;5077363;28;20019;-68
2023/03/26 01:26:59;;;;;;;;;;;7.10;99.90;;;;;;5113649;28;19924;-69
2023/03/26 01:29:28;;;;;;;;;;;7.10;99.90;;;;;;5097038;28;20300;-69
2023/03/26 01:32:12;;;;;;;;;;;7.00;99.90;;;;;;5115225;28;19963;-68
2023/03/26 01:35:02;;;;;;;;;;;7.00;99.90;;;;;;5097949;28;19924;-69
2023/03/26 01:37:36;;;;;;;;;;;7.00;99.90;;;;;;5115765;28;19931;-70
2023/03/26 01:40:14;;;;;;;;;;;7.00;99.90;;;;;;5115013;28;19924;-70
2023/03/26 01:42:46;;;;;;;;;;;7.00;99.90;;;;;;5115170;28;19984;-69
2023/03/26 01:45:15;;;;;;;;;;;7.00;99.90;;;;;;5115437;28;19924;-70
2023/03/26 01:47:41;;;;;;;;;;;7.00;99.90;;;;;;5115338;28;20369;-69
2023/03/26 01:50:07;;;;;;;;;;;7.00;99.90;;;;;;5114819;28;20626;-69
2023/03/26 01:52:33;;;;;;;;;;;7.00;99.90;;;;;;5096766;28;19979;-69
2023/03/26 01:54:59;;;;;;;;;;;7.00;99.90;;;;;;5114461;28;19930;-69
2023/03/26 01:57:30;;;;;;;;;;;7.00;99.90;;;;;;5114926;28;19950;-69
2023/03/26 02:00:10;;;;;;;;;;;6.90;99.90;;;;;;5096872;28;19967;-70
2023/03/26 02:02:41;;;;;;;;;;;7.00;99.90;;;;;;5096768;28;19923;-70
2023/03/26 02:05:16;;;;;;;;;;;7.00;99.90;;;;;;5114598;28;19928;-69
2023/03/26 02:07:43;;;;;;;;;;;6.90;99.90;;;;;;5114515;28;19990;-69
2023/03/26 02:10:19;;;;;;;;;;;6.90;99.90;;;;;;5114487;28;19928;-69
2023/03/26 02:12:45;;;;;;;;;;;6.90;99.90;;;;;;5115077;28;19989;-69
2023/03/26 02:15:11;;;;;;;;;;;7.00;99.90;;;;;;5114259;28;19963;-69
2023/03/26 02:17:39;;;;;;;;;;;7.00;99.90;;;;;;5114832;28;19931;-69
2023/03/26 02:20:09;;;;;;;;;;;7.00;99.90;;;;;;5114438;28;19927;-69
2023/03/26 02:22:39;;;;;;;;;;;7.00;99.90;;;;;;5096766;28;19927;-68
2023/03/26 02:25:08;;;;;;;;;;;6.90;99.90;;;;;;5096307;28;19982;-69
2023/03/26 02:27:35;;;;;;;;;;;6.90;99.90;;;;;;5096488;28;20002;-69
2023/03/26 02:30:01;;;;;;;;;;;6.90;99.90;;;;;;5114145;28;19924;-69
2023/03/26 02:32:26;;;;;;;;;;;6.90;99.90;;;;;;5096360;28;19924;-69
2023/03/26 02:34:52;;;;;;;;;;;7.00;99.90;;;;;;5096456;28;19931;-69
2023/03/26 02:37:18;;;;;;;;;;;7.00;99.90;;;;;;5095724;28;19924;-69
2023/03/26 02:39:43;;;;;;;;;;;6.90;99.90;;;;;;5095853;28;20345;-69
2023/03/26 02:42:09;;;;;;;;;;;6.90;99.90;;;;;;5113956;28;19930;-68
2023/03/26 02:44:37;;;;;;;;;;;7.00;99.90;;;;;;5114182;28;20284;-69
2023/03/26 02:47:03;;;;;;;;;;;7.00;99.90;;;;;;5113608;28;19932;-69
2023/03/26 02:49:28;;;;;;;;;;;7.00;99.90;;;;;;5114209;28;19923;-69
2023/03/26 02:51:55;;;;;;;;;;;7.00;99.90;;;;;;5113974;28;20014;-69
2023/03/26 02:54:21;;;;;;;;;;;7.00;99.90;;;;;;5113498;28;20020;-69
2023/03/26 02:56:46;;;;;;;;;;;7.00;99.90;;;;;;5114106;28;19927;-69
2023/03/26 02:59:12;;;;;;;;;;;7.00;99.90;;;;;;5113720;28;19931;-69
2023/03/26 03:01:41;;;;;;;;;;;7.00;99.90;;;;;;5096035;28;19924;-70
2023/03/26 03:04:10;;;;;;;;;;;6.90;99.90;;;;;;5113394;28;19934;-69
2023/03/26 03:06:39;;;;;;;;;;;7.00;99.90;;;;;;5113686;28;20339;-69
2023/03/26 03:09:07;;;;;;;;;;;7.60;99.90;;;;;;5112786;28;19927;-69
2023/03/26 03:11:33;;;;;;;;;;;7.00;99.90;;;;;;5113553;28;20438;-69
2023/03/26 03:13:59;;;;;;;;;;;7.00;99.90;;;;;;5113613;28;19924;-69
2023/03/26 03:16:25;;;;;;;;;;;7.00;99.90;;;;;;5113349;28;19928;-70
2023/03/26 03:18:55;;;;;;;;;;;7.00;99.90;;;;;;5113691;28;19924;-70
2023/03/26 03:21:25;;;;;;;;;;;7.00;99.90;;;;;;5113459;28;19927;-69
2023/03/26 03:23:51;;;;;;;;;;;7.00;99.90;;;;;;5113757;28;19967;-69
2023/03/26 03:26:20;;;;;;;;;;;6.90;99.90;;;;;;5113072;28;20018;-70
2023/03/26 03:28:49;;;;;;;;;;;6.90;99.90;;;;;;5095142;28;19930;-69
2023/03/26 03:31:16;;;;;;;;;;;6.90;99.90;;;;;;5113061;28;19927;-69
2023/03/26 03:33:41;;;;;;;;;;;6.90;99.90;;;;;;5113472;28;20277;-70
2023/03/26 03:36:11;;;;;;;;;;;6.90;99.90;;;;;;5112810;28;19934;-69
2023/03/26 03:38:37;;;;;;;;;;;6.90;99.90;;;;;;5113045;28;19923;-69
2023/03/26 03:41:02;;;;;;;;;;;6.90;99.90;;;;;;5078349;28;19937;-69
2023/03/26 03:43:28;;;;;;;;;;;6.90;99.90;;;;;;5112905;28;19924;-69
2023/03/26 03:45:54;;;;;;;;;;;6.90;99.90;;;;;;5094835;28;19928;-69
2023/03/26 03:48:19;;;;;;;;;;;6.90;99.90;;;;;;5094380;28;19931;-70
2023/03/26 03:50:45;;;;;;;;;;;6.90;99.90;;;;;;5094833;28;19964;-69
2023/03/26 03:53:14;;;;;;;;;;;6.80;99.90;;;;;;5094586;28;19928;-69
2023/03/26 03:55:40;;;;;;;;;;;6.90;99.90;;;;;;5113053;28;20457;-69
2023/03/26 03:58:08;;;;;;;;;;;6.80;99.90;;;;;;5112942;28;20022;-70
2023/03/26 04:00:37;;;;;;;;;;;6.80;99.90;;;;;;5112977;28;19928;-68
2023/03/26 04:03:05;;;;;;;;;;;6.80;99.90;;;;;;5112939;28;20230;-69
2023/03/26 04:05:31;;;;;;;;;;;6.70;99.90;;;;;;5094508;28;19981;-69
2023/03/26 04:07:56;;;;;;;;;;;6.80;99.90;;;;;;5111950;28;19971;-69
2023/03/26 04:10:22;;;;;;;;;;;6.80;99.90;;;;;;5112342;28;19930;-70
2023/03/26 04:12:48;;;;;;;;;;;6.80;99.90;;;;;;5112685;28;19947;-69
2023/03/26 04:15:13;;;;;;;;;;;6.80;99.90;;;;;;5094097;28;20006;-70
2023/03/26 04:17:43;;;;;;;;;;;6.80;99.90;;;;;;5094882;28;19932;-69
2023/03/26 04:20:13;;;;;;;;;;;6.70;99.90;;;;;;5112772;28;19931;-69
2023/03/26 04:22:41;;;;;;;;;;;6.70;99.90;;;;;;5112847;28;19924;-69
2023/03/26 04:25:07;;;;;;;;;;;6.70;99.90;;;;;;5112709;28;20406;-69
2023/03/26 04:27:35;;;;;;;;;;;6.80;99.90;;;;;;5112265;28;19993;-69
2023/03/26 04:30:01;;;;;;;;;;;6.70;99.90;;;;;;5112580;28;20014;-68
2023/03/26 04:32:28;;;;;;;;;;;6.70;99.90;;;;;;5093906;28;20010;-68
2023/03/26 04:34:59;;;;;;;;;;;6.70;99.90;;;;;;5112316;28;19972;-69
2023/03/26 04:37:26;;;;;;;;;;;6.70;99.90;;;;;;5112130;28;19969;-69
2023/03/26 04:39:53;;;;;;;;;;;6.70;99.90;;;;;;5111825;28;20346;-69
2023/03/26 04:42:18;;;;;;;;;;;6.70;99.90;;;;;;5093957;28;20349;-69
2023/03/26 04:44:46;;;;;;;;;;;6.70;99.90;;;;;;5112562;28;19928;-69
2023/03/26 04:47:12;;;;;;;;;;;6.70;99.90;;;;;;5112442;28;20018;-69
2023/03/26 04:49:37;;;;;;;;;;;6.70;99.90;;;;;;5112091;28;20030;-70
2023/03/26 04:52:03;;;;;;;;;;;6.70;99.90;;;;;;5094525;28;19931;-69
2023/03/26 04:54:29;;;;;;;;;;;6.70;99.90;;;;;;5112088;28;19924;-69
2023/03/26 04:56:59;;;;;;;;;;;6.70;99.90;;;;;;5112165;28;20289;-69
2023/03/26 04:59:28;;;;;;;;;;;6.70;99.90;;;;;;5111846;28;20380;-70
2023/03/26 05:01:55;;;;;;;;;;;6.70;99.90;;;;;;5114191;28;19977;-70
2023/03/26 05:04:21;;;;;;;;;;;6.60;99.90;;;;;;5116107;28;19928;-69
2023/03/26 05:06:47;;;;;;;;;;;6.70;99.90;;;;;;5081037;28;20372;-69
2023/03/26 05:09:13;;;;;;;;;;;6.70;99.90;;;;;;5097733;28;19976;-69
2023/03/26 05:11:38;;;;;;;;;;;6.60;99.90;;;;;;5115772;28;19938;-69
2023/03/26 05:14:04;;;;;;;;;;;6.60;99.90;;;;;;5115927;28;19928;-69
2023/03/26 05:16:30;;;;;;;;;;;6.60;99.90;;;;;;5115858;28;19943;-69
2023/03/26 05:18:56;;;;;;;;;;;6.60;99.90;;;;;;5081228;28;20342;-68
2023/03/26 05:21:22;;;;;;;;;;;6.60;99.90;;;;;;5115662;28;19970;-68
2023/03/26 05:23:47;;;;;;;;;;;6.60;99.90;;;;;;5115608;28;19931;-69
2023/03/26 05:26:13;;;;;;;;;;;6.60;99.90;;;;;;5097564;28;19924;-69
2023/03/26 05:28:39;;;;;;;;;;;6.60;99.90;;;;;;5096866;28;19920;-69
2023/03/26 05:31:05;;;;;;;;;;;6.50;99.90;;;;;;5080348;28;19957;-70
2023/03/26 05:33:31;;;;;;;;;;;6.50;99.90;;;;;;5114987;28;19942;-69
2023/03/26 05:36:01;;;;;;;;;;;6.40;99.90;;;;;;5115697;28;19924;-69
2023/03/26 05:38:27;;;;;;;;;;;6.40;99.90;;;;;;5096983;28;19924;-69
2023/03/26 05:41:00;;;;;;;;;;;6.40;99.90;;;;;;5115441;28;20006;-69
2023/03/26 05:43:26;;;;;;;;;;;6.40;99.90;;;;;;5096864;28;19938;-70
2023/03/26 05:45:52;;;;;;;;;;;6.40;99.90;;;;;;5097839;28;19923;-70
2023/03/26 05:48:17;;;;;;;;;;;6.40;99.90;;;;;;5115677;28;19939;-69
2023/03/26 05:50:43;;;;;;;;;;;6.40;99.90;;;;;;5096924;28;19924;-70
2023/03/26 05:53:09;;;;;;;;;;;6.50;99.90;;;;;;5097091;28;19923;-69
2023/03/26 05:55:34;;;;;;;;;;;6.50;99.90;;;;;;5096612;28;19934;-69
2023/03/26 05:58:00;;;;;;;;;;;6.50;99.90;;;;;;5115234;28;19931;-70
2023/03/26 06:00:26;;;;;;;;;;;6.50;99.90;;;;;;5114597;28;19975;-69
2023/03/26 06:02:53;;;;;;;;;;;6.50;99.90;;;;;;5115111;28;19930;-69
2023/03/26 06:05:19;;;;;;;;;;;6.50;99.90;;;;;;5079967;28;19931;-69
2023/03/26 06:07:44;;;;;;;;;;;6.50;99.90;;;;;;5114323;28;20099;-69
2023/03/26 06:10:10;;;;;;;;;;;6.50;99.90;;;;;;5114634;28;20295;-70
2023/03/26 06:12:36;;;;;;;;;;;6.60;99.90;;;;;;5114292;28;20048;-69
2023/03/26 06:15:02;;;;;;;;;;;6.60;99.90;;;;;;5114738;28;19924;-71
2023/03/26 06:17:28;;;;;;;;;;;6.60;99.90;;;;;;5114353;28;19975;-69
2023/03/26 06:19:53;;;;;;;;;;;6.70;99.90;;;;;;5096920;28;19975;-69
2023/03/26 06:22:19;;;;;;;;;;;6.70;99.90;;;;;;5079959;28;20368;-70
2023/03/26 06:24:45;;;;;;;;;;;6.70;99.90;;;;;;5114345;28;19954;-70
2023/03/26 06:27:10;;;;;;;;;;;6.70;99.90;;;;;;5096558;28;19923;-70
2023/03/26 06:29:36;;;;;;;;;;;6.70;99.90;;;;;;5114214;28;19924;-70
2023/03/26 06:32:01;;;;;;;;;;;6.80;99.90;;;;;;5096385;28;19924;-69
2023/03/26 06:34:27;;;;;;;;;;;6.70;99.90;;;;;;5114277;28;19981;-70
2023/03/26 06:36:52;;;;;;;;;;;6.80;99.90;;;;;;5095988;28;19992;-70
2023/03/26 06:39:19;;;;;;;;;;;6.80;99.90;;;;;;5114451;28;19931;-69
2023/03/26 06:41:45;;;;;;;;;;;6.90;99.90;;;;;;5114102;28;19928;-70
2023/03/26 06:44:11;;;;;;;;;;;6.90;99.90;;;;;;5114384;28;19924;-69
2023/03/26 06:46:36;;;;;;;;;;;7.00;99.90;;;;;;5113613;28;20369;-69
2023/03/26 06:49:02;;;;;;;;;;;7.00;99.90;;;;;;5113944;28;19977;-69
2023/03/26 06:51:27;;;;;;;;;;;6.90;99.90;;;;;;5114199;28;19924;-69
2023/03/26 06:53:53;;;;;;;;;;;6.90;99.90;;;;;;5095368;28;20434;-69
2023/03/26 06:56:18;;;;;;;;;;;6.90;99.90;;;;;;5113860;28;19931;-69
2023/03/26 06:58:44;;;;;;;;;;;6.90;99.90;;;;;;5113565;28;19981;-70
2023/03/26 07:01:10;;;;;;;;;;;6.90;99.90;;;;;;5113646;28;19970;-70
2023/03/26 07:03:35;;;;;;;;;;;6.90;99.90;;;;;;5095409;28;19924;-70
2023/03/26 07:06:01;;;;;;;;;;;6.90;99.90;;;;;;5113457;28;19924;-69
2023/03/26 07:08:27;;;;;;;;;;;6.90;99.90;;;;;;5113489;28;19924;-70
2023/03/26 07:10:52;;;;;;;;;;;7.00;99.90;;;;;;5095407;28;20394;-69
2023/03/26 07:13:18;;;;;;;;;;;7.10;99.90;;;;;;5094972;28;19923;-70
2023/03/26 07:15:43;;;;;;;;;;;7.20;99.90;;;;;;5095354;28;20058;-69
2023/03/26 07:18:09;;;;;;;;;;;7.30;99.90;;;;;;5113273;28;19997;-69
2023/03/26 07:20:35;;;;;;;;;;;7.30;99.90;;;;;;5094810;28;19931;-69
2023/03/26 07:23:00;;;;;;;;;;;7.30;99.90;;;;;;5113405;28;20014;-71
2023/03/26 07:25:26;;;;;;;;;;;7.40;99.90;;;;;;5112660;28;19963;-70
2023/03/26 07:27:58;;;;;;;;;;;7.50;99.90;;;;;;5094666;28;19931;-70
2023/03/26 07:30:44;;;;;;;;;;;7.60;99.90;;;;;;5095074;28;20015;-70
2023/03/26 07:33:42;;;;;;;;;;;7.60;99.90;;;;;;5061223;28;19931;-70
2023/03/26 07:36:14;;;;;;;;;;;7.60;99.90;;;;;;5056733;28;19976;-69
2023/03/26 07:38:52;;;;;;;;;;;7.70;99.90;;;;;;5077469;28;19924;-70
2023/03/26 07:41:17;;;;;;;;;;;7.90;99.90;;;;;;5112862;28;20039;-70
2023/03/26 07:43:46;;;;;;;;;;;8.10;99.90;;;;;;5112569;28;19979;-70
2023/03/26 07:46:12;;;;;;;;;;;8.10;99.90;;;;;;5112843;28;19924;-69
2023/03/26 07:48:41;;;;;;;;;;;8.10;99.90;;;;;;5112477;28;19931;-70
2023/03/26 07:51:08;;;;;;;;;;;8.20;99.90;;;;;;5112741;28;19967;-69
2023/03/26 07:53:33;;;;;;;;;;;8.30;99.90;;;;;;5094830;28;20407;-68
2023/03/26 07:55:59;;;;;;;;;;;8.90;99.90;;;;;;5112542;28;19920;-72
2023/03/26 07:58:44;;;;;;;;;;;9.80;99.90;;;;;;5094722;28;20014;-72
2023/03/26 08:01:23;;;;;;;;;;;10.40;99.90;;;;;;5112605;28;19924;-72
2023/03/26 08:03:52;;;;;;;;;;;11.60;99.90;;;;;;5094031;28;19930;-72
2023/03/26 08:06:22;;;;;;;;;;;12.90;99.90;;;;;;5094687;28;19938;-72
2023/03/26 08:09:06;;;;;;;;;;;13.80;99.90;;;;;;5112502;28;19924;-71
2023/03/26 08:11:38;;;;;;;;;;;14.30;99.90;;;;;;5094363;28;19959;-72
2023/03/26 08:14:23;;;;;;;;;;;14.20;99.90;;;;;;5094419;28;19997;-71
2023/03/26 08:17:00;;;;;;;;;;;13.30;99.80;;;;;;5094279;28;19928;-72
2023/03/26 08:19:44;;;;;;;;;;;12.70;99.90;;;;;;5094724;28;20272;-72
2023/03/26 08:22:44;;;;;;;;;;;13.10;99.90;;;;;;5077470;28;19968;-72
2023/03/26 08:25:16;;;;;;;;;;;12.70;99.80;;;;;;5057351;28;19988;-72
2023/03/26 08:27:45;;;;;;;;;;;12.30;99.90;;;;;;5112609;28;19931;-72
2023/03/26 08:30:19;;;;;;;;;;;11.70;99.90;;;;;;5093800;28;19924;-71
2023/03/26 08:32:51;;;;;;;;;;;12.00;99.90;;;;;;5093929;28;19988;-70
2023/03/26 08:35:17;;;;;;;;;;;11.90;99.90;;;;;;5094446;28;19924;-71
2023/03/26 08:37:44;;;;;;;;;;;12.40;99.90;;;;;;5080984;28;19924;-74
2023/03/26 08:40:10;;;;;;;;;;;13.00;99.90;;;;;;5116887;28;19931;-74
2023/03/26 08:42:35;;;;;;;;;;;12.90;98.80;;;;;;5081434;28;19931;-72
2023/03/26 08:45:01;;;;;;;;;;;12.50;98.40;;;;;;5081234;28;19924;-73
2023/03/26 08:47:35;;;;;;;;;;;12.10;99.90;;;;;;5098336;28;19930;-72
2023/03/26 08:50:29;;;;;;;;;;;11.90;99.90;;;;;;5115773;28;19924;-71
2023/03/26 08:53:30;;;;;;;;;;;11.40;99.90;;;;;;5097532;28;19943;-72
2023/03/26 08:56:00;;;;;;;;;;;11.20;99.90;;;;;;4996487;28;19933;-73
2023/03/26 08:58:44;;;;;;;;;;;10.90;99.90;;;;;;5079566;28;19931;-73
2023/03/26 09:01:28;;;;;;;;;;;10.70;99.90;;;;;;5115882;28;19947;-72
2023/03/26 09:04:04;;;;;;;;;;;10.50;99.90;;;;;;5080361;28;20144;-73
2023/03/26 09:06:30;;;;;;;;;;;10.30;99.90;;;;;;5115704;28;19924;-72
2023/03/26 09:09:14;;;;;;;;;;;10.20;99.90;;;;;;5115489;28;20276;-73
2023/03/26 09:11:39;;;;;;;;;;;10.30;99.90;;;;;;5080628;28;19924;-71
2023/03/26 09:14:11;;;;;;;;;;;10.40;99.90;;;;;;5097000;28;19931;-72
2023/03/26 09:16:56;;;;;;;;;;;10.50;99.90;;;;;;5115866;28;19924;-73
2023/03/26 09:19:40;;;;;;;;;;;10.50;99.90;;;;;;5115549;28;19924;-71
2023/03/26 09:22:11;;;;;;;;;;;10.50;99.90;;;;;;5096761;28;19946;-72
2023/03/26 09:24:46;;;;;;;;;;;10.60;99.90;;;;;;5115096;28;20014;-72
2023/03/26 09:27:30;;;;;;;;;;;10.60;99.90;;;;;;5114814;28;20555;-72
2023/03/26 09:30:10;;;;;;;;;;;10.50;99.90;;;;;;5114879;28;19990;-73
2023/03/26 09:32:36;;;;;;;;;;;10.60;99.90;;;;;;5115542;28;19923;-73
2023/03/26 09:35:09;;;;;;;;;;;10.60;99.90;;;;;;5097079;28;19924;-73
2023/03/26 09:37:45;;;;;;;;;;;10.60;99.90;;;;;;5097484;28;19927;-73
2023/03/26 09:40:16;;;;;;;;;;;10.30;99.90;;;;;;5096994;28;20018;-71
2023/03/26 09:42:41;;;;;;;;;;;10.10;99.90;;;;;;5115160;28;19924;-71
2023/03/26 09:45:25;;;;;;;;;;;9.90;99.90;;;;;;5096497;28;19930;-71
2023/03/26 09:48:04;;;;;;;;;;;9.80;99.90;;;;;;5114269;28;20341;-71
2023/03/26 09:50:49;;;;;;;;;;;9.70;99.90;;;;;;5080224;28;19931;-72
2023/03/26 09:53:20;;;;;;;;;;;9.70;99.90;;;;;;5096945;28;19934;-71
2023/03/26 09:55:55;;;;;;;;;;;9.60;99.90;;;;;;5114896;28;20388;-71
2023/03/26 09:58:20;;;;;;;;;;;9.50;99.90;;;;;;5115271;28;19923;-71
2023/03/26 10:00:59;;;;;;;;;;;9.50;99.90;;;;;;5097114;28;19943;-71
2023/03/26 10:03:34;;;;;;;;;;;9.50;99.90;;;;;;5114961;28;19924;-72
2023/03/26 10:06:25;;;;;;;;;;;9.40;99.90;;;;;;5114612;28;19938;-71
2023/03/26 10:08:54;;;;;;;;;;;9.30;99.90;;;;;;5113666;28;20288;-71
2023/03/26 10:11:32;;;;;;;;;;;9.30;99.90;;;;;;5113666;28;20389;-70
2023/03/26 10:14:06;;;;;;;;;;;9.30;99.90;;;;;;5091262;28;19924;-71
2023/03/26 10:16:36;;;;;;;;;;;9.30;99.90;;;;;;5094443;28;19924;-71
2023/03/26 10:19:20;;;;;;;;;;;9.30;99.90;;;;;;5094378;28;19923;-71
2023/03/26 10:21:51;;;;;;;;;;;9.20;99.90;;;;;;5095325;28;19947;-71
2023/03/26 10:24:17;;;;;;;;;;;9.20;99.90;;;;;;5094378;28;19923;-71
2023/03/26 10:27:01;;;;;;;;;;;9.20;99.90;;;;;;5113168;28;19962;-71
2023/03/26 10:29:38;;;;;;;;;;;9.20;99.90;;;;;;5095176;28;20233;-70
2023/03/26 10:32:22;;;;;;;;;;;9.20;99.90;;;;;;5096046;28;19954;-69
2023/03/26 10:34:47;;;;;;;;;;;9.30;99.90;;;;;;5114043;28;20331;-71
2023/03/26 10:37:19;;;;;;;;;;;9.30;99.90;;;;;;5113621;28;19923;-71
2023/03/26 10:39:44;;;;;;;;;;;9.30;99.90;;;;;;5113253;28;19928;-72
2023/03/26 10:42:36;;;;;;;;;;;9.30;99.90;;;;;;5095714;28;20426;-70
2023/03/26 10:45:16;;;;;;;;;;;9.30;99.90;;;;;;5090686;28;19975;-70
2023/03/26 10:48:06;;;;;;;;;;;9.30;99.90;;;;;;5113450;28;19924;-70
2023/03/26 10:50:50;;;;;;;;;;;9.30;99.90;;;;;;5113892;28;19971;-70
2023/03/26 10:53:25;;;;;;;;;;;9.30;99.90;;;;;;5113202;28;19975;-70
2023/03/26 10:55:53;;;;;;;;;;;9.40;99.90;;;;;;5095973;28;20030;-69
2023/03/26 10:58:28;;;;;;;;;;;9.50;99.90;;;;;;5094717;28;20475;-70
2023/03/26 11:00:55;;;;;;;;;;;9.50;99.90;;;;;;5113575;28;19924;-69
2023/03/26 11:03:40;;;;;;;;;;;9.60;99.90;;;;;;5113470;28;19920;-70
2023/03/26 11:06:09;;;;;;;;;;;9.70;99.90;;;;;;5113459;28;20421;-71
2023/03/26 11:08:43;;;;;;;;;;;9.60;99.90;;;;;;5113413;28;19931;-69
2023/03/26 11:11:15;;;;;;;;;;;9.50;99.90;;;;;;5095257;28;19923;-70
2023/03/26 11:13:41;;;;;;;;;;;9.50;99.90;;;;;;5113585;28;19928;-70
2023/03/26 11:16:17;;;;;;;;;;;9.40;99.90;;;;;;5095350;28;20269;-70
2023/03/26 11:19:01;;;;;;;;;;;9.30;99.90;;;;;;5113438;28;19923;-69
2023/03/26 11:21:32;;;;;;;;;;;9.20;99.90;;;;;;5113143;28;19924;-70
2023/03/26 11:23:58;;;;;;;;;;;9.20;99.90;;;;;;5078761;28;19924;-70
2023/03/26 11:26:26;;;;;;;;;;;9.20;99.90;;;;;;5094999;28;20463;-69
2023/03/26 11:28:52;;;;;;;;;;;9.30;99.90;;;;;;5113006;28;19928;-69
2023/03/26 11:31:36;;;;;;;;;;;9.40;99.90;;;;;;5094830;28;19989;-69
2023/03/26 11:34:05;;;;;;;;;;;9.40;99.90;;;;;;5113082;28;20019;-70
2023/03/26 11:36:34;;;;;;;;;;;9.50;99.90;;;;;;5112774;28;19923;-70
2023/03/26 11:39:03;;;;;;;;;;;9.40;99.90;;;;;;5109644;28;20415;-69
2023/03/26 11:41:32;;;;;;;;;;;9.30;99.90;;;;;;5112863;28;20388;-69
2023/03/26 11:44:01;;;;;;;;;;;9.40;99.90;;;;;;5113132;28;19930;-69
2023/03/26 11:46:27;;;;;;;;;;;9.50;99.90;;;;;;5095001;28;19967;-69
2023/03/26 11:48:58;;;;;;;;;;;9.50;99.90;;;;;;5113144;28;19963;-69
2023/03/26 11:51:34;;;;;;;;;;;9.60;99.90;;;;;;5094621;28;19924;-70
2023/03/26 11:54:01;;;;;;;;;;;9.70;99.90;;;;;;5095319;28;20004;-68
2023/03/26 11:56:30;;;;;;;;;;;9.90;99.90;;;;;;5094709;28;19920;-71
2023/03/26 11:59:00;;;;;;;;;;;10.00;99.90;;;;;;5113130;28;19924;-69
2023/03/26 12:01:30;;;;;;;;;;;10.00;99.80;;;;;;5112379;28;19971;-69
2023/03/26 12:04:04;;;;;;;;;;;9.80;99.90;;;;;;5112907;28;20375;-68
2023/03/26 12:06:31;;;;;;;;;;;9.80;99.90;;;;;;5112163;28;19924;-70
2023/03/26 12:08:57;;;;;;;;;;;9.80;99.90;;;;;;5112809;28;19946;-71
2023/03/26 12:11:30;;;;;;;;;;;9.70;99.90;;;;;;5112136;28;19923;-69
2023/03/26 12:14:00;;;;;;;;;;;9.60;99.90;;;;;;5112573;28;19969;-72
2023/03/26 12:16:26;;;;;;;;;;;9.50;99.90;;;;;;5112506;28;19946;-70
2023/03/26 12:18:59;;;;;;;;;;;9.40;99.90;;;;;;5094941;28;20349;-71
2023/03/26 12:21:25;;;;;;;;;;;9.40;99.90;;;;;;5112409;28;20052;-67
2023/03/26 12:23:59;;;;;;;;;;;9.40;99.90;;;;;;5109923;28;19996;-69
2023/03/26 12:26:40;;;;;;;;;;;9.50;99.90;;;;;;5092688;28;19935;-69
2023/03/26 12:29:10;;;;;;;;;;;9.50;99.90;;;;;;5094617;28;19924;-69
2023/03/26 12:31:59;;;;;;;;;;;9.40;99.80;;;;;;5076549;28;19924;-70
2023/03/26 12:34:30;;;;;;;;;;;9.30;99.80;;;;;;5079289;28;19928;-70
2023/03/26 12:36:58;;;;;;;;;;;9.40;99.90;;;;;;5112333;28;20369;-69
2023/03/26 12:39:36;;;;;;;;;;;9.40;99.90;;;;;;5112254;28;19928;-69
2023/03/26 12:42:05;;;;;;;;;;;9.40;99.90;;;;;;5093568;28;20329;-69
2023/03/26 12:44:35;;;;;;;;;;;9.30;99.90;;;;;;5110791;28;19927;-70
2023/03/26 12:47:08;;;;;;;;;;;9.40;99.90;;;;;;5110748;28;20287;-71
2023/03/26 12:49:35;;;;;;;;;;;9.50;99.90;;;;;;5111755;28;19928;-70
2023/03/26 12:52:24;;;;;;;;;;;9.50;99.90;;;;;;5112264;28;19974;-69
2023/03/26 12:55:05;;;;;;;;;;;9.50;99.90;;;;;;5080526;28;19924;-69
2023/03/26 12:57:41;;;;;;;;;;;9.60;99.90;;;;;;5112178;28;19945;-69
2023/03/26 13:00:18;;;;;;;;;;;9.50;99.90;;;;;;5112482;28;19928;-69
2023/03/26 13:03:04;;;;;;;;;;;9.50;99.90;;;;;;5111642;28;20015;-68
2023/03/26 13:05:49;;;;;;;;;;;9.40;99.90;;;;;;5111875;28;19923;-69
2023/03/26 13:08:33;;;;;;;;;;;9.30;99.90;;;;;;5093601;28;19928;-69
2023/03/26 13:10:59;;;;;;;;;;;9.30;99.90;;;;;;5112026;28;20357;-69
2023/03/26 13:13:40;;;;;;;;;;;9.30;99.90;;;;;;5093699;28;19967;-69
2023/03/26 13:16:15;;;;;;;;;;;9.30;99.90;;;;;;5111743;28;19977;-69
2023/03/26 13:18:51;;;;;;;;;;;9.20;99.90;;;;;;5112166;28;19931;-69
2023/03/26 13:21:17;;;;;;;;;;;9.10;99.90;;;;;;5092218;28;19924;-70
2023/03/26 13:23:51;;;;;;;;;;;9.10;99.90;;;;;;5114766;28;19938;-69
2023/03/26 13:26:23;;;;;;;;;;;9.00;99.90;;;;;;5097465;28;19944;-70
2023/03/26 13:28:52;;;;;;;;;;;9.00;99.90;;;;;;5115822;28;19924;-70
2023/03/26 13:31:17;;;;;;;;;;;9.00;99.90;;;;;;5115373;28;20284;-70
2023/03/26 13:33:49;;;;;;;;;;;9.00;99.90;;;;;;5115009;28;19931;-69
2023/03/26 13:36:17;;;;;;;;;;;9.10;99.90;;;;;;5114661;28;19927;-69
2023/03/26 13:38:53;;;;;;;;;;;9.10;99.90;;;;;;5115430;28;19930;-69
2023/03/26 13:41:28;;;;;;;;;;;9.20;99.90;;;;;;5096083;28;20007;-69
2023/03/26 13:44:02;;;;;;;;;;;9.20;99.90;;;;;;5114962;28;19924;-68
2023/03/26 13:46:34;;;;;;;;;;;8.20;99.90;;;;;;5114857;28;19943;-69
2023/03/26 13:49:14;;;;;;;;;;;9.10;99.90;;;;;;5096856;28;19945;-70
2023/03/26 13:51:49;;;;;;;;;;;9.00;99.90;;;;;;5115197;28;20014;-69
2023/03/26 13:54:21;;;;;;;;;;;9.00;99.90;;;;;;5097181;28;20043;-69
2023/03/26 13:57:08;;;;;;;;;;;9.10;99.90;;;;;;5114589;28;20365;-68
2023/03/26 13:59:38;;;;;;;;;;;9.20;99.90;;;;;;5114853;28;19928;-72
2023/03/26 14:02:07;;;;;;;;;;;9.30;99.90;;;;;;5097135;28;19962;-71
2023/03/26 14:04:37;;;;;;;;;;;9.20;99.90;;;;;;5114388;28;20273;-72
2023/03/26 14:07:05;;;;;;;;;;;9.20;99.90;;;;;;5114594;28;19941;-72
2023/03/26 14:09:47;;;;;;;;;;;9.00;99.90;;;;;;5096393;28;19949;-72
2023/03/26 14:12:25;;;;;;;;;;;9.00;99.90;;;;;;5097012;28;19930;-71
2023/03/26 14:14:53;;;;;;;;;;;9.00;99.90;;;;;;5114940;28;20007;-71
2023/03/26 14:17:28;;;;;;;;;;;9.00;99.90;;;;;;5079425;28;19923;-72
2023/03/26 14:20:13;;;;;;;;;;;8.90;99.80;;;;;;5096902;28;19928;-71
2023/03/26 14:22:38;;;;;;;;;;;8.80;99.90;;;;;;5096324;28;19963;-72
2023/03/26 14:25:10;;;;;;;;;;;8.90;99.90;;;;;;5114912;28;19939;-71
2023/03/26 14:27:39;;;;;;;;;;;9.00;99.90;;;;;;5079552;28;19923;-72
2023/03/26 14:30:11;;;;;;;;;;;8.90;99.90;;;;;;5096611;28;19928;-72
2023/03/26 14:32:42;;;;;;;;;;;8.80;99.90;;;;;;5096333;28;20006;-72
2023/03/26 14:35:18;;;;;;;;;;;8.80;99.90;;;;;;5096392;28;19923;-72
2023/03/26 14:38:03;;;;;;;;;;;8.80;99.90;;;;;;5096145;28;19980;-71
2023/03/26 14:40:35;;;;;;;;;;;8.80;99.90;;;;;;5095473;28;20373;-72
2023/03/26 14:43:14;;;;;;;;;;;8.70;99.90;;;;;;5113687;28;19923;-70
2023/03/26 14:45:43;;;;;;;;;;;8.70;99.90;;;;;;5113013;28;19946;-71
2023/03/26 14:48:27;;;;;;;;;;;8.70;99.90;;;;;;5095576;28;19971;-73